createdAt,value
2023-03-06T00:00:49.174Z,73.75
2023-03-06T00:03:17.134Z,73.82
2023-03-06T00:05:44.764Z,74.15
2023-03-06T00:08:12.448Z,73.59
2023-03-06T00:10:41.226Z,73.90
2023-03-06T00:13:12.613Z,73.56
2023-03-06T00:15:40.287Z,73.59
2023-03-06T00:18:08.494Z,73.82
2023-03-06T00:20:36.273Z,74.20
2023-03-06T00:23:03.812Z,73.98
2023-03-06T00:25:31.514Z,73.85
2023-03-06T00:27:59.149Z,73.50
2023-03-06T00:30:28.018Z,73.53
2023-03-06T00:32:55.661Z,73.89
2023-03-06T00:35:23.317Z,74.03
2023-03-06T00:37:50.871Z,73.60
2023-03-06T00:40:19.952Z,73.62
2023-03-06T00:42:47.535Z,73.81
2023-03-06T00:45:15.440Z,74.50
2023-03-06T00:47:44.596Z,74.79
2023-03-06T00:50:12.701Z,74.41
2023-03-06T00:52:41.825Z,75.02
2023-03-06T00:55:10.201Z,74.07
2023-03-06T00:57:37.735Z,74.57
2023-03-06T01:00:06.370Z,74.41
2023-03-06T01:02:34.012Z,74.81
2023-03-06T01:05:02.867Z,74.79
2023-03-06T01:07:33.332Z,74.40
2023-03-06T01:10:00.993Z,74.72
2023-03-06T01:12:28.556Z,74.67
2023-03-06T01:14:56.084Z,74.60
2023-03-06T01:17:23.583Z,74.93
2023-03-06T01:19:51.087Z,75.17
2023-03-06T01:22:19.945Z,74.99
2023-03-06T01:24:47.432Z,74.93
2023-03-06T01:27:14.957Z,74.61
2023-03-06T01:29:42.434Z,74.77
2023-03-06T01:32:09.991Z,74.79
2023-03-06T01:34:37.511Z,74.72
2023-03-06T01:37:05.041Z,74.46
2023-03-06T01:39:33.987Z,75.02
2023-03-06T01:42:01.479Z,74.72
2023-03-06T01:44:28.977Z,74.40
2023-03-06T01:46:56.454Z,74.24
2023-03-06T01:49:26.594Z,73.91
2023-03-06T01:51:56.288Z,74.75
2023-03-06T01:54:26.214Z,74.50
2023-03-06T01:56:58.191Z,74.56
2023-03-06T01:59:27.456Z,74.77
2023-03-06T02:01:55.847Z,74.85
2023-03-06T02:04:24.247Z,74.64
2023-03-06T02:06:51.851Z,75.29
2023-03-06T02:09:19.467Z,74.54
2023-03-06T02:11:47.134Z,74.65
2023-03-06T02:14:17.604Z,75.31
2023-03-06T02:16:45.423Z,76.23
2023-03-06T02:19:21.717Z,76.59
2023-03-06T02:21:49.205Z,76.36
2023-03-06T02:24:24.944Z,76.63
2023-03-06T02:26:54.397Z,76.48
2023-03-06T02:29:24.067Z,76.79
2023-03-06T02:31:51.695Z,76.74
2023-03-06T02:34:51.809Z,76.98
2023-03-06T02:37:19.414Z,77.34
2023-03-06T02:39:49.564Z,77.04
2023-03-06T02:42:24.505Z,77.02
2023-03-06T02:44:53.691Z,77.00
2023-03-06T02:47:22.264Z,77.38
2023-03-06T02:49:49.905Z,77.98
2023-03-06T02:52:17.421Z,77.73
2023-03-06T02:54:45.033Z,77.74
2023-03-06T02:57:12.712Z,77.53
2023-03-06T02:59:41.576Z,77.76
2023-03-06T03:02:09.162Z,78.10
2023-03-06T03:04:36.763Z,78.02
2023-03-06T03:07:04.375Z,78.41
2023-03-06T03:09:36.680Z,78.43
2023-03-06T03:12:05.978Z,78.41
2023-03-06T03:14:33.522Z,78.59
2023-03-06T03:17:02.373Z,78.70
2023-03-06T03:19:30.137Z,78.51
2023-03-06T03:21:57.609Z,79.07
2023-03-06T03:24:25.485Z,78.31
2023-03-06T03:26:53.082Z,77.66
2023-03-06T03:29:20.841Z,77.47
2023-03-06T03:31:48.400Z,78.16
2023-03-06T03:34:18.825Z,77.72
2023-03-06T03:36:46.381Z,77.68
2023-03-06T03:39:13.943Z,77.64
2023-03-06T03:41:41.470Z,78.00
2023-03-06T03:44:09.018Z,77.70
2023-03-06T03:46:36.714Z,77.51
2023-03-06T03:49:04.620Z,77.23
2023-03-06T03:51:33.712Z,77.08
2023-03-06T03:54:01.280Z,76.95
2023-03-06T03:56:28.747Z,77.13
2023-03-06T03:58:56.697Z,76.79
2023-03-06T04:01:24.248Z,76.55
2023-03-06T04:03:51.869Z,76.93
2023-03-06T04:06:19.787Z,76.49
2023-03-06T04:08:48.722Z,76.94
2023-03-06T04:11:16.272Z,77.07
2023-03-06T04:13:43.801Z,77.61
2023-03-06T04:16:11.334Z,77.97
2023-03-06T04:18:39.068Z,78.69
2023-03-06T04:21:07.307Z,78.65
2023-03-06T04:23:34.932Z,78.62
2023-03-06T04:26:03.824Z,78.75
2023-03-06T04:28:31.325Z,78.81
2023-03-06T04:30:58.964Z,79.18
2023-03-06T04:33:26.476Z,79.47
2023-03-06T04:35:54.167Z,79.62
2023-03-06T04:38:21.726Z,79.49
2023-03-06T04:40:50.167Z,79.78
2023-03-06T04:43:19.450Z,79.84
2023-03-06T04:45:46.973Z,80.67
2023-03-06T04:48:15.715Z,81.21
2023-03-06T04:50:43.325Z,81.13
2023-03-06T04:53:11.010Z,81.64
2023-03-06T04:55:38.531Z,81.54
2023-03-06T04:58:06.043Z,81.84
2023-03-06T05:00:34.965Z,81.45
2023-03-06T05:03:03.216Z,81.50
2023-03-06T05:05:30.782Z,81.33
2023-03-06T05:07:58.672Z,81.58
2023-03-06T05:10:26.247Z,81.17
2023-03-06T05:12:53.716Z,80.85
2023-03-06T05:15:21.340Z,80.55
2023-03-06T05:17:50.342Z,80.07
2023-03-06T05:20:18.335Z,79.52
2023-03-06T05:22:46.111Z,79.40
2023-03-06T05:25:13.910Z,78.85
2023-03-06T05:27:42.110Z,79.79
2023-03-06T05:30:13.484Z,80.34
2023-03-06T05:32:41.042Z,80.47
2023-03-06T05:35:28.522Z,79.71
2023-03-06T05:37:56.257Z,79.27
2023-03-06T05:40:23.747Z,80.15
2023-03-06T05:42:51.210Z,80.57
2023-03-06T05:45:18.790Z,80.52
2023-03-06T05:47:46.395Z,81.21
2023-03-06T05:50:14.812Z,81.66
2023-03-06T05:52:43.786Z,82.14
2023-03-06T05:55:13.005Z,82.39
2023-03-06T05:57:40.760Z,82.19
2023-03-06T06:00:10.203Z,82.21
2023-03-06T06:02:37.761Z,82.01
2023-03-06T06:05:05.861Z,82.07
2023-03-06T06:07:33.380Z,81.95
2023-03-06T06:10:03.762Z,81.91
2023-03-06T06:12:31.891Z,82.07
2023-03-06T06:14:59.447Z,82.17
2023-03-06T06:17:27.090Z,82.10
2023-03-06T06:19:54.768Z,82.13
2023-03-06T06:22:22.286Z,82.25
2023-03-06T06:24:49.816Z,82.53
2023-03-06T06:27:18.681Z,82.46
2023-03-06T06:29:46.222Z,82.59
2023-03-06T06:32:13.740Z,81.86
2023-03-06T06:34:41.330Z,82.41
2023-03-06T06:37:08.908Z,82.40
2023-03-06T06:39:36.440Z,82.54
2023-03-06T06:42:28.295Z,81.96
2023-03-06T06:44:53.076Z,82.45
2023-03-06T06:47:24.036Z,82.49
2023-03-06T06:49:52.758Z,82.23
2023-03-06T06:52:20.519Z,82.50
2023-03-06T06:54:48.074Z,82.72
2023-03-06T06:57:16.125Z,82.03
2023-03-06T06:59:43.662Z,82.32
2023-03-06T07:02:13.212Z,82.07
2023-03-06T07:04:52.220Z,82.66
2023-03-06T07:07:25.483Z,82.54
2023-03-06T07:09:53.924Z,82.43
2023-03-06T07:12:21.410Z,82.40
2023-03-06T07:14:48.890Z,81.69
2023-03-06T07:17:17.743Z,81.40
2023-03-06T07:19:45.276Z,81.54
2023-03-06T07:22:13.031Z,80.85
2023-03-06T07:24:40.514Z,80.87
2023-03-06T07:27:08.139Z,80.44
2023-03-06T07:29:35.654Z,80.87
2023-03-06T07:32:03.255Z,80.84
2023-03-06T07:34:32.166Z,80.46
2023-03-06T07:36:59.707Z,80.59
2023-03-06T07:39:28.004Z,79.66
2023-03-06T07:41:55.529Z,80.04
2023-03-06T07:44:23.112Z,79.71
2023-03-06T07:46:50.736Z,80.79
2023-03-06T07:49:18.376Z,80.50
2023-03-06T07:51:47.323Z,79.30
2023-03-06T07:54:14.814Z,79.56
2023-03-06T07:56:42.328Z,79.59
2023-03-06T07:59:11.324Z,79.42
2023-03-06T08:01:40.212Z,79.98
2023-03-06T08:04:07.864Z,79.14
2023-03-06T08:06:35.424Z,78.35
2023-03-06T08:09:04.677Z,77.65
2023-03-06T08:11:33.186Z,77.37
2023-03-06T08:14:01.293Z,77.01
2023-03-06T08:16:31.061Z,77.29
2023-03-06T08:18:59.596Z,76.33
2023-03-06T08:21:28.487Z,76.44
2023-03-06T08:23:56.237Z,76.55
2023-03-06T08:26:26.560Z,77.17
2023-03-06T08:28:54.820Z,78.51
2023-03-06T08:31:26.966Z,78.86
2023-03-06T08:33:55.039Z,79.16
2023-03-06T08:36:22.595Z,80.77
2023-03-06T08:38:50.191Z,81.23
2023-03-06T08:41:17.778Z,81.50
2023-03-06T08:43:47.056Z,81.97
2023-03-06T08:46:14.649Z,81.63
2023-03-06T08:48:42.548Z,80.77
2023-03-06T08:51:10.978Z,80.69
2023-03-06T08:53:43.455Z,79.47
2023-03-06T08:56:16.326Z,79.94
2023-03-06T08:58:43.884Z,79.88
2023-03-06T09:01:15.671Z,80.44
2023-03-06T09:03:43.251Z,78.70
2023-03-06T09:06:10.818Z,77.49
2023-03-06T09:08:38.464Z,78.21
2023-03-06T09:11:06.164Z,77.34
2023-03-06T09:13:33.701Z,77.64
2023-03-06T09:16:01.195Z,75.78
2023-03-06T09:18:30.122Z,75.99
2023-03-06T09:20:57.783Z,76.38
2023-03-06T09:23:25.272Z,73.59
2023-03-06T09:25:53.933Z,74.03
2023-03-06T09:28:21.555Z,73.20
2023-03-06T09:30:51.199Z,72.90
2023-03-06T09:33:19.239Z,72.74
2023-03-06T09:35:50.877Z,72.23
2023-03-06T09:38:18.492Z,70.52
2023-03-06T09:41:02.762Z,72.07
2023-03-06T09:43:32.973Z,71.35
2023-03-06T09:46:00.526Z,73.33
2023-03-06T09:48:37.769Z,72.83
2023-03-06T09:51:12.157Z,72.79
2023-03-06T09:53:50.483Z,73.80
2023-03-06T09:56:21.448Z,73.88
2023-03-06T09:58:51.183Z,74.07
2023-03-06T10:01:22.075Z,73.99
2023-03-06T10:03:51.644Z,73.34
2023-03-06T10:06:24.085Z,73.37
2023-03-06T10:08:54.275Z,73.55
2023-03-06T10:11:26.292Z,74.91
2023-03-06T10:13:57.313Z,74.58
2023-03-06T10:16:28.077Z,73.29
2023-03-06T10:18:56.537Z,73.44
2023-03-06T10:21:45.262Z,73.50
2023-03-06T10:24:22.715Z,72.98
2023-03-06T10:26:53.730Z,73.21
2023-03-06T10:29:42.203Z,71.07
2023-03-06T10:32:13.618Z,71.86
2023-03-06T10:34:41.821Z,71.73
2023-03-06T10:37:19.658Z,71.43
2023-03-06T10:39:47.384Z,72.70
2023-03-06T10:42:14.878Z,72.28
2023-03-06T10:44:42.363Z,72.54
2023-03-06T10:47:30.998Z,71.14
2023-03-06T10:50:00.380Z,72.25
2023-03-06T10:52:32.047Z,72.33
2023-03-06T10:55:26.437Z,72.18
2023-03-06T10:57:54.188Z,70.49
2023-03-06T11:00:28.553Z,69.63
2023-03-06T11:03:17.016Z,69.79
2023-03-06T11:06:03.996Z,70.40
2023-03-06T11:08:32.986Z,69.94
2023-03-06T11:11:02.427Z,70.25
2023-03-06T11:13:31.833Z,69.61
2023-03-06T11:16:02.979Z,68.70
2023-03-06T11:18:35.764Z,67.58
2023-03-06T11:21:07.138Z,65.52
2023-03-06T11:23:40.238Z,63.88
2023-03-06T11:26:21.094Z,62.98
2023-03-06T11:28:50.511Z,63.67
2023-03-06T11:31:20.060Z,63.06
2023-03-06T11:33:51.109Z,63.69
2023-03-06T11:36:24.187Z,62.28
2023-03-06T11:38:54.705Z,60.82
2023-03-06T11:41:31.548Z,62.87
2023-03-06T11:44:03.504Z,61.36
2023-03-06T11:46:35.427Z,61.66
2023-03-06T11:49:09.483Z,60.94
2023-03-06T11:51:41.319Z,61.12
2023-03-06T11:54:13.641Z,62.28
2023-03-06T11:56:46.364Z,61.51
2023-03-06T11:59:27.762Z,58.72
2023-03-06T12:02:00.453Z,59.50
2023-03-06T12:04:47.671Z,59.32
2023-03-06T12:07:22.540Z,58.73
2023-03-06T12:09:56.058Z,59.43
2023-03-06T12:12:34.028Z,58.51
2023-03-06T12:15:15.521Z,57.87
2023-03-06T12:18:10.656Z,57.98
2023-03-06T12:20:48.472Z,56.87
2023-03-06T12:23:27.776Z,57.05
2023-03-06T12:26:02.364Z,56.88
2023-03-06T12:28:37.981Z,58.80
2023-03-06T12:31:26.175Z,59.01
2023-03-06T12:34:02.780Z,59.22
2023-03-06T12:36:36.512Z,60.20
2023-03-06T12:39:10.422Z,60.86
2023-03-06T12:41:44.451Z,61.90
2023-03-06T12:44:32.764Z,61.54
2023-03-06T12:47:03.301Z,61.68
2023-03-06T12:49:33.347Z,61.99
2023-03-06T12:52:02.024Z,61.81
2023-03-06T12:54:30.883Z,61.94
2023-03-06T12:57:01.116Z,62.27
2023-03-06T12:59:37.760Z,61.89
2023-03-06T13:02:49.851Z,63.89
2023-03-06T13:05:38.384Z,62.74
2023-03-06T13:08:29.512Z,63.51
2023-03-06T13:11:16.121Z,62.65
2023-03-06T13:13:45.768Z,62.41
2023-03-06T13:16:15.430Z,63.31
2023-03-06T13:18:49.018Z,61.71
2023-03-06T13:21:59.258Z,62.29
2023-03-06T13:24:27.807Z,62.66
2023-03-06T13:27:03.173Z,61.41
2023-03-06T13:29:53.223Z,61.17
2023-03-06T13:32:30.463Z,60.18
2023-03-06T13:34:57.982Z,60.06
2023-03-06T13:37:56.585Z,59.89
2023-03-06T13:40:32.616Z,59.66
2023-03-06T13:43:22.395Z,59.61
2023-03-06T13:45:51.658Z,59.44
2023-03-06T13:48:45.785Z,58.30
2023-03-06T13:51:24.934Z,59.08
2023-03-06T13:54:16.955Z,58.66
2023-03-06T13:57:11.960Z,57.57
2023-03-06T13:59:56.984Z,56.32
2023-03-06T14:02:41.894Z,57.92
2023-03-06T14:05:13.310Z,58.14
2023-03-06T14:07:41.949Z,58.81
2023-03-06T14:10:21.323Z,56.96
2023-03-06T14:13:03.735Z,57.32
2023-03-06T14:15:38.008Z,56.51
2023-03-06T14:18:08.947Z,55.62
2023-03-06T14:20:42.951Z,56.24
2023-03-06T14:23:23.626Z,51.79
2023-03-06T14:26:00.002Z,53.13
2023-03-06T14:28:29.805Z,54.07
2023-03-06T14:30:58.888Z,53.32
2023-03-06T14:33:42.986Z,53.17
2023-03-06T14:36:15.608Z,53.75
2023-03-06T14:38:48.643Z,54.92
2023-03-06T14:41:24.573Z,53.66
2023-03-06T14:43:52.092Z,52.90
2023-03-06T14:46:21.495Z,51.97
2023-03-06T14:48:50.412Z,53.10
2023-03-06T14:51:19.516Z,53.92
2023-03-06T14:53:49.016Z,53.79
2023-03-06T14:56:19.458Z,53.62
2023-03-06T14:58:53.478Z,53.79
2023-03-06T15:01:28.799Z,54.29
2023-03-06T15:03:59.857Z,53.85
2023-03-06T15:06:31.416Z,54.13
2023-03-06T15:09:01.873Z,54.69
2023-03-06T15:11:54.753Z,54.04
2023-03-06T15:14:23.755Z,54.49
2023-03-06T15:16:51.294Z,55.17
2023-03-06T15:19:21.636Z,56.19
2023-03-06T15:21:50.557Z,57.52
2023-03-06T15:24:33.614Z,58.75
2023-03-06T15:27:02.821Z,58.93
2023-03-06T15:29:30.549Z,59.10
2023-03-06T15:32:14.773Z,59.21
2023-03-06T15:34:43.614Z,59.00
2023-03-06T15:37:24.843Z,59.95
2023-03-06T15:40:09.160Z,60.26
2023-03-06T15:42:37.167Z,59.86
2023-03-06T15:45:15.725Z,60.08
2023-03-06T15:47:43.374Z,59.38
2023-03-06T15:50:16.654Z,60.50
2023-03-06T15:52:44.606Z,60.19
2023-03-06T15:55:12.950Z,60.21
2023-03-06T15:57:42.692Z,59.68
2023-03-06T16:00:27.026Z,60.09
2023-03-06T16:02:55.821Z,60.59
2023-03-06T16:05:25.289Z,60.11
2023-03-06T16:07:53.131Z,60.63
2023-03-06T16:10:22.833Z,60.55
2023-03-06T16:12:52.754Z,62.17
2023-03-06T16:15:23.012Z,61.86
2023-03-06T16:17:50.585Z,61.56
2023-03-06T16:20:20.785Z,61.85
2023-03-06T16:22:50.614Z,62.08
2023-03-06T16:25:18.896Z,62.41
2023-03-06T16:27:51.041Z,62.19
2023-03-06T16:30:20.536Z,62.07
2023-03-06T16:32:48.109Z,62.20
2023-03-06T16:35:16.086Z,62.60
2023-03-06T16:37:43.845Z,62.54
2023-03-06T16:40:19.469Z,62.72
2023-03-06T16:42:47.349Z,62.30
2023-03-06T16:45:15.137Z,62.25
2023-03-06T16:47:43.232Z,62.45
2023-03-06T16:50:22.789Z,63.71
2023-03-06T16:52:50.847Z,63.71
2023-03-06T16:55:20.090Z,63.56
2023-03-06T16:57:47.896Z,64.30
2023-03-06T17:00:16.819Z,63.88
2023-03-06T17:02:45.318Z,63.79
2023-03-06T17:05:13.151Z,63.41
2023-03-06T17:07:41.265Z,64.40
2023-03-06T17:10:12.717Z,63.44
2023-03-06T17:12:41.942Z,64.58
2023-03-06T17:15:12.717Z,65.13
2023-03-06T17:17:40.486Z,65.24
2023-03-06T17:20:09.599Z,64.98
2023-03-06T17:22:40.629Z,66.02
2023-03-06T17:25:09.929Z,65.12
2023-03-06T17:27:38.171Z,66.15
2023-03-06T17:30:08.448Z,67.26
2023-03-06T17:32:36.082Z,66.64
2023-03-06T17:35:04.196Z,66.75
2023-03-06T17:37:33.039Z,66.08
2023-03-06T17:40:00.703Z,67.10
2023-03-06T17:42:28.311Z,67.50
2023-03-06T17:44:57.330Z,67.77
2023-03-06T17:47:26.479Z,68.15
2023-03-06T17:49:54.197Z,67.98
2023-03-06T17:52:21.919Z,67.89
2023-03-06T17:54:51.125Z,67.86
2023-03-06T17:57:18.922Z,67.94
2023-03-06T17:59:48.666Z,68.22
2023-03-06T18:02:16.840Z,68.02
2023-03-06T18:04:46.184Z,67.68
2023-03-06T18:07:13.991Z,67.68
2023-03-06T18:09:42.733Z,67.58
2023-03-06T18:12:11.352Z,67.50
2023-03-06T18:14:39.064Z,67.96
2023-03-06T18:17:06.931Z,67.39
2023-03-06T18:19:34.544Z,66.70
2023-03-06T18:22:03.617Z,67.05
2023-03-06T18:24:31.308Z,67.22
2023-03-06T18:26:59.061Z,67.31
2023-03-06T18:29:26.919Z,67.44
2023-03-06T18:31:56.263Z,67.51
2023-03-06T18:34:23.887Z,68.10
2023-03-06T18:36:52.782Z,68.25
2023-03-06T18:39:22.402Z,68.29
2023-03-06T18:41:50.137Z,68.36
2023-03-06T18:44:17.984Z,67.41
2023-03-06T18:46:45.556Z,67.33
2023-03-06T18:49:13.767Z,67.43
2023-03-06T18:51:41.914Z,67.62
2023-03-06T18:54:10.140Z,68.12
2023-03-06T18:56:44.028Z,68.07
2023-03-06T18:59:14.184Z,67.90
2023-03-06T19:01:44.237Z,68.19
2023-03-06T19:04:12.629Z,67.64
2023-03-06T19:06:43.136Z,68.30
2023-03-06T19:09:11.366Z,68.39
2023-03-06T19:11:40.515Z,68.85
2023-03-06T19:14:08.689Z,68.34
2023-03-06T19:16:40.102Z,69.43
2023-03-06T19:19:07.950Z,69.17
2023-03-06T19:21:35.568Z,69.38
2023-03-06T19:24:10.247Z,70.05
2023-03-06T19:26:38.194Z,69.44
2023-03-06T19:29:07.788Z,69.76
2023-03-06T19:31:35.699Z,69.97
2023-03-06T19:34:03.856Z,70.64
2023-03-06T19:36:34.028Z,70.51
2023-03-06T19:39:03.302Z,70.84
2023-03-06T19:41:31.442Z,70.32
2023-03-06T19:44:02.344Z,70.43
2023-03-06T19:46:31.930Z,70.46
2023-03-06T19:49:00.978Z,70.75
2023-03-06T19:51:29.597Z,71.07
2023-03-06T19:53:57.705Z,71.37
2023-03-06T19:56:31.905Z,72.21
2023-03-06T19:58:59.644Z,71.65
2023-03-06T20:01:28.564Z,71.79
2023-03-06T20:03:59.247Z,72.49
2023-03-06T20:06:31.146Z,72.16
2023-03-06T20:08:58.986Z,71.48
2023-03-06T20:11:29.727Z,72.26
2023-03-06T20:13:58.130Z,72.35
2023-03-06T20:16:28.133Z,72.62
2023-03-06T20:19:00.140Z,72.37
2023-03-06T20:21:33.783Z,72.22
2023-03-06T20:24:01.415Z,71.47
2023-03-06T20:26:49.855Z,72.12
2023-03-06T20:29:17.650Z,72.45
2023-03-06T20:31:45.486Z,73.11
2023-03-06T20:34:14.949Z,73.69
2023-03-06T20:36:42.726Z,73.03
2023-03-06T20:39:13.326Z,74.33
2023-03-06T20:41:41.181Z,74.67
2023-03-06T20:44:13.138Z,75.33
2023-03-06T20:46:41.448Z,75.51
2023-03-06T20:49:09.898Z,76.41
2023-03-06T20:51:49.269Z,75.95
2023-03-06T20:54:17.500Z,76.89
2023-03-06T20:56:55.128Z,76.75
2023-03-06T20:59:23.706Z,76.69
2023-03-06T21:01:53.552Z,76.21
2023-03-06T21:04:21.265Z,76.59
2023-03-06T21:06:50.261Z,77.15
2023-03-06T21:09:18.267Z,77.14
2023-03-06T21:11:48.102Z,76.83
2023-03-06T21:14:17.563Z,76.79
2023-03-06T21:16:45.580Z,77.27
2023-03-06T21:19:14.012Z,76.64
2023-03-06T21:21:43.156Z,77.60
2023-03-06T21:24:12.424Z,77.32
2023-03-06T21:26:42.918Z,77.25
2023-03-06T21:29:10.551Z,77.47
2023-03-06T21:31:38.655Z,78.29
2023-03-06T21:34:06.445Z,78.12
2023-03-06T21:36:34.345Z,78.38
2023-03-06T21:39:13.949Z,77.56
2023-03-06T21:41:48.323Z,77.95
2023-03-06T21:44:16.618Z,78.04
2023-03-06T21:46:44.231Z,78.05
2023-03-06T21:49:11.829Z,78.61
2023-03-06T21:51:47.203Z,78.59
2023-03-06T21:54:15.044Z,78.88
2023-03-06T21:56:44.371Z,79.15
2023-03-06T21:59:12.502Z,78.42
2023-03-06T22:01:42.538Z,79.01
2023-03-06T22:04:10.524Z,79.02
2023-03-06T22:06:39.495Z,79.30
2023-03-06T22:09:07.348Z,79.72
2023-03-06T22:11:37.256Z,80.02
2023-03-06T22:14:09.092Z,79.46
2023-03-06T22:16:42.583Z,80.11
2023-03-06T22:19:10.701Z,80.27
2023-03-06T22:21:38.643Z,80.18
2023-03-06T22:24:11.583Z,80.49
2023-03-06T22:26:39.421Z,80.03
2023-03-06T22:29:08.835Z,80.27
2023-03-06T22:31:42.885Z,79.77
2023-03-06T22:34:13.712Z,80.32
2023-03-06T22:36:43.552Z,80.60
2023-03-06T22:39:13.683Z,80.68
2023-03-06T22:41:42.173Z,80.90
2023-03-06T22:44:17.450Z,80.93
2023-03-06T22:46:45.355Z,80.15
2023-03-06T22:49:20.570Z,81.08
2023-03-06T22:51:48.260Z,80.43
2023-03-06T22:54:17.068Z,80.86
2023-03-06T22:56:49.487Z,80.81
2023-03-06T22:59:22.375Z,81.05
2023-03-06T23:01:54.230Z,80.96
2023-03-06T23:04:23.586Z,80.76
2023-03-06T23:06:51.510Z,81.00
2023-03-06T23:09:21.940Z,81.03
2023-03-06T23:11:50.166Z,80.76
2023-03-06T23:14:20.657Z,80.42
2023-03-06T23:16:58.863Z,79.52
2023-03-06T23:19:29.914Z,80.72
2023-03-06T23:21:57.750Z,80.84
2023-03-06T23:24:26.718Z,80.73
2023-03-06T23:26:54.654Z,80.45
2023-03-06T23:29:30.266Z,80.05
2023-03-06T23:31:58.871Z,80.47
2023-03-06T23:35:33.271Z,80.36
2023-03-06T23:37:20.835Z,79.23
2023-03-06T23:39:50.368Z,79.30
2023-03-06T23:45:26.414Z,79.39
2023-03-06T23:47:54.124Z,79.96
2023-03-06T23:50:23.076Z,80.63
2023-03-06T23:52:55.359Z,80.34
2023-03-06T23:55:23.617Z,80.42
2023-03-06T23:57:51.284Z,80.79
